sensor_id;sensor_type;location;lat;lon;timestamp;pressure;altitude;pressure_sealevel;temperature;humidity
75166;BME280;63747;48.042;10.088;2023-02-28T00:00:56;95535.03;;;-4.22;65.62
75166;BME280;63747;48.042;10.088;2023-02-28T00:03:56;95533.66;;;-4.29;65.69
75166;BME280;63747;48.042;10.088;2023-02-28T00:06:57;95537.09;;;-4.29;65.85
75166;BME280;63747;48.042;10.088;2023-02-28T00:09:58;95529.19;;;-4.26;65.74
75166;BME280;63747;48.042;10.088;2023-02-28T00:13:01;95532.34;;;-4.21;65.55
75166;BME280;63747;48.042;10.088;2023-02-28T00:16:08;95530.69;;;-4.22;65.49
75166;BME280;63747;48.042;10.088;2023-02-28T00:19:09;95535.72;;;-4.19;65.48
75166;BME280;63747;48.042;10.088;2023-02-28T00:22:10;95534.91;;;-4.19;65.42
75166;BME280;63747;48.042;10.088;2023-02-28T00:25:13;95531.69;;;-4.24;65.43
75166;BME280;63747;48.042;10.088;2023-02-28T00:28:14;95530.69;;;-4.22;65.48
75166;BME280;63747;48.042;10.088;2023-02-28T00:31:14;95527.97;;;-4.19;65.28
75166;BME280;63747;48.042;10.088;2023-02-28T00:34:15;95528.72;;;-4.17;65.34
75166;BME280;63747;48.042;10.088;2023-02-28T00:37:16;95529.72;;;-4.19;65.44
75166;BME280;63747;48.042;10.088;2023-02-28T00:40:16;95526.97;;;-4.16;65.32
75166;BME280;63747;48.042;10.088;2023-02-28T00:43:17;95532.22;;;-4.18;65.17
75166;BME280;63747;48.042;10.088;2023-02-28T00:46:18;95537.41;;;-4.18;65.06
75166;BME280;63747;48.042;10.088;2023-02-28T00:49:18;95540.97;;;-4.20;65.15
75166;BME280;63747;48.042;10.088;2023-02-28T00:52:19;95532.22;;;-4.18;65.13
75166;BME280;63747;48.042;10.088;2023-02-28T00:55:20;95528.81;;;-4.18;64.84
75166;BME280;63747;48.042;10.088;2023-02-28T00:58:21;95530.38;;;-4.16;64.77
75166;BME280;63747;48.042;10.088;2023-02-28T01:01:21;95515.69;;;-4.15;64.68
75166;BME280;63747;48.042;10.088;2023-02-28T01:04:22;95517.88;;;-4.07;64.62
75166;BME280;63747;48.042;10.088;2023-02-28T01:07:23;95508.63;;;-4.11;64.71
75166;BME280;63747;48.042;10.088;2023-02-28T01:10:24;95512.13;;;-4.12;64.88
75166;BME280;63747;48.042;10.088;2023-02-28T01:13:25;95507.84;;;-4.13;64.52
75166;BME280;63747;48.042;10.088;2023-02-28T01:16:26;95501.00;;;-4.15;64.67
75166;BME280;63747;48.042;10.088;2023-02-28T01:19:27;95507.16;;;-4.17;64.66
75166;BME280;63747;48.042;10.088;2023-02-28T01:22:28;95500.31;;;-4.18;64.60
75166;BME280;63747;48.042;10.088;2023-02-28T01:25:29;95499.25;;;-4.14;64.40
75166;BME280;63747;48.042;10.088;2023-02-28T01:28:29;95497.25;;;-4.09;64.37
75166;BME280;63747;48.042;10.088;2023-02-28T01:31:30;95494.50;;;-4.06;64.30
75166;BME280;63747;48.042;10.088;2023-02-28T01:34:31;95492.47;;;-4.17;64.46
75166;BME280;63747;48.042;10.088;2023-02-28T01:37:31;95494.97;;;-4.15;64.25
75166;BME280;63747;48.042;10.088;2023-02-28T01:40:32;95491.66;;;-4.17;64.39
75166;BME280;63747;48.042;10.088;2023-02-28T01:46:42;95488.06;;;-4.15;64.47
75166;BME280;63747;48.042;10.088;2023-02-28T01:49:43;95486.25;;;-4.12;64.38
75166;BME280;63747;48.042;10.088;2023-02-28T01:52:45;95487.00;;;-4.10;64.33
75166;BME280;63747;48.042;10.088;2023-02-28T01:55:50;95476.47;;;-4.07;64.06
75166;BME280;63747;48.042;10.088;2023-02-28T01:58:53;95465.97;;;-4.04;64.23
75166;BME280;63747;48.042;10.088;2023-02-28T02:01:54;95471.91;;;-4.02;63.91
75166;BME280;63747;48.042;10.088;2023-02-28T02:05:03;95466.81;;;-4.04;63.78
75166;BME280;63747;48.042;10.088;2023-02-28T02:08:07;95474.13;;;-4.12;64.05
75166;BME280;63747;48.042;10.088;2023-02-28T02:11:11;95480.97;;;-4.11;64.00
75166;BME280;63747;48.042;10.088;2023-02-28T02:14:28;95475.63;;;-4.08;64.01
75166;BME280;63747;48.042;10.088;2023-02-28T02:17:46;95474.72;;;-4.07;63.99
75166;BME280;63747;48.042;10.088;2023-02-28T02:31:06;95470.09;;;-4.18;64.00
75166;BME280;63747;48.042;10.088;2023-02-28T02:34:28;95473.44;;;-4.16;63.83
75166;BME280;63747;48.042;10.088;2023-02-28T02:44:21;95480.97;;;-4.11;63.87
75166;BME280;63747;48.042;10.088;2023-02-28T02:47:24;95480.06;;;-4.10;63.92
75166;BME280;63747;48.042;10.088;2023-02-28T02:50:31;95478.31;;;-4.09;63.69
75166;BME280;63747;48.042;10.088;2023-02-28T02:53:37;95465.19;;;-4.06;63.66
75166;BME280;63747;48.042;10.088;2023-02-28T02:56:41;95474.06;;;-4.10;63.47
75166;BME280;63747;48.042;10.088;2023-02-28T02:59:43;95479.63;;;-4.18;63.86
75166;BME280;63747;48.042;10.088;2023-02-28T03:02:46;95478.94;;;-4.22;63.90
75166;BME280;63747;48.042;10.088;2023-02-28T03:05:49;95477.94;;;-4.19;63.99
75166;BME280;63747;48.042;10.088;2023-02-28T03:08:50;95482.88;;;-4.15;63.78
75166;BME280;63747;48.042;10.088;2023-02-28T03:11:55;95476.13;;;-4.17;63.87
75166;BME280;63747;48.042;10.088;2023-02-28T03:15:35;95480.53;;;-4.19;63.96
75166;BME280;63747;48.042;10.088;2023-02-28T03:26:04;95483.88;;;-4.17;63.79
75166;BME280;63747;48.042;10.088;2023-02-28T03:29:28;95478.25;;;-4.25;63.84
75166;BME280;63747;48.042;10.088;2023-02-28T03:32:39;95487.38;;;-4.18;63.56
75166;BME280;63747;48.042;10.088;2023-02-28T03:35:47;95490.03;;;-4.20;63.43
75166;BME280;63747;48.042;10.088;2023-02-28T03:38:58;95483.50;;;-4.27;63.41
75166;BME280;63747;48.042;10.088;2023-02-28T03:42:08;95479.63;;;-4.35;63.88
75166;BME280;63747;48.042;10.088;2023-02-28T03:45:13;95495.16;;;-4.35;63.96
75166;BME280;63747;48.042;10.088;2023-02-28T03:48:21;95492.63;;;-4.37;63.93
75166;BME280;63747;48.042;10.088;2023-02-28T03:51:26;95498.56;;;-4.35;64.07
75166;BME280;63747;48.042;10.088;2023-02-28T03:54:33;95494.19;;;-4.33;64.19
75166;BME280;63747;48.042;10.088;2023-02-28T03:58:01;95494.19;;;-4.33;64.11
75166;BME280;63747;48.042;10.088;2023-02-28T04:01:12;95500.94;;;-4.30;64.01
75166;BME280;63747;48.042;10.088;2023-02-28T04:04:16;95497.44;;;-4.29;63.98
75166;BME280;63747;48.042;10.088;2023-02-28T04:07:17;95496.81;;;-4.34;64.13
75166;BME280;63747;48.042;10.088;2023-02-28T04:10:18;95499.69;;;-4.40;64.23
75166;BME280;63747;48.042;10.088;2023-02-28T04:13:18;95498.72;;;-4.38;64.10
75166;BME280;63747;48.042;10.088;2023-02-28T04:16:19;95496.06;;;-4.36;64.27
75166;BME280;63747;48.042;10.088;2023-02-28T04:19:20;95502.38;;;-4.42;64.37
75166;BME280;63747;48.042;10.088;2023-02-28T04:22:20;95504.88;;;-4.40;64.10
75166;BME280;63747;48.042;10.088;2023-02-28T04:25:21;95497.66;;;-4.51;64.24
75166;BME280;63747;48.042;10.088;2023-02-28T04:28:22;95500.00;;;-4.47;64.37
75166;BME280;63747;48.042;10.088;2023-02-28T04:31:22;95495.69;;;-4.46;64.25
75166;BME280;63747;48.042;10.088;2023-02-28T04:34:24;95509.47;;;-4.46;64.34
75166;BME280;63747;48.042;10.088;2023-02-28T04:37:24;95504.41;;;-4.49;64.63
75166;BME280;63747;48.042;10.088;2023-02-28T04:40:28;95504.81;;;-4.56;64.69
75166;BME280;63747;48.042;10.088;2023-02-28T04:43:30;95516.69;;;-4.52;64.69
75166;BME280;63747;48.042;10.088;2023-02-28T04:46:30;95514.84;;;-4.50;64.76
75166;BME280;63747;48.042;10.088;2023-02-28T04:49:31;95524.28;;;-4.49;64.99
75166;BME280;63747;48.042;10.088;2023-02-28T04:52:32;95522.75;;;-4.53;64.83
75166;BME280;63747;48.042;10.088;2023-02-28T04:55:34;95520.03;;;-4.50;64.84
75166;BME280;63747;48.042;10.088;2023-02-28T04:58:34;95523.16;;;-4.44;64.57
75166;BME280;63747;48.042;10.088;2023-02-28T05:01:35;95522.09;;;-4.39;64.56
75166;BME280;63747;48.042;10.088;2023-02-28T05:04:36;95520.28;;;-4.37;64.63
75166;BME280;63747;48.042;10.088;2023-02-28T05:07:37;95520.41;;;-4.40;64.61
75166;BME280;63747;48.042;10.088;2023-02-28T05:10:38;95526.19;;;-4.53;64.65
75166;BME280;63747;48.042;10.088;2023-02-28T05:13:38;95537.28;;;-4.51;64.81
75166;BME280;63747;48.042;10.088;2023-02-28T05:16:39;95522.91;;;-4.56;64.71
75166;BME280;63747;48.042;10.088;2023-02-28T05:19:40;95537.03;;;-4.63;64.88
75166;BME280;63747;48.042;10.088;2023-02-28T05:22:41;95533.75;;;-4.67;64.99
75166;BME280;63747;48.042;10.088;2023-02-28T05:25:42;95544.47;;;-4.75;65.29
75166;BME280;63747;48.042;10.088;2023-02-28T05:28:42;95525.06;;;-4.83;65.34
75166;BME280;63747;48.042;10.088;2023-02-28T05:31:43;95534.22;;;-4.76;65.34
75166;BME280;63747;48.042;10.088;2023-02-28T05:34:44;95550.13;;;-4.66;65.51
75166;BME280;63747;48.042;10.088;2023-02-28T05:37:45;95534.38;;;-4.62;65.03
75166;BME280;63747;48.042;10.088;2023-02-28T05:40:45;95549.81;;;-4.60;65.31
75166;BME280;63747;48.042;10.088;2023-02-28T05:43:47;95546.41;;;-4.61;65.25
75166;BME280;63747;48.042;10.088;2023-02-28T05:46:47;95541.31;;;-4.62;65.41
75166;BME280;63747;48.042;10.088;2023-02-28T05:49:48;95543.56;;;-4.74;65.69
75166;BME280;63747;48.042;10.088;2023-02-28T05:52:52;95548.13;;;-4.79;66.01
75166;BME280;63747;48.042;10.088;2023-02-28T05:55:53;95555.66;;;-4.74;65.87
75166;BME280;63747;48.042;10.088;2023-02-28T05:58:53;95545.53;;;-4.79;66.31
75166;BME280;63747;48.042;10.088;2023-02-28T06:01:54;95544.63;;;-4.78;65.93
75166;BME280;63747;48.042;10.088;2023-02-28T06:04:55;95550.72;;;-4.79;66.01
75166;BME280;63747;48.042;10.088;2023-02-28T06:07:56;95553.59;;;-4.85;66.47
75166;BME280;63747;48.042;10.088;2023-02-28T06:10:56;95550.78;;;-4.80;66.03
75166;BME280;63747;48.042;10.088;2023-02-28T06:14:00;95551.69;;;-4.81;66.46
75166;BME280;63747;48.042;10.088;2023-02-28T06:17:01;95555.66;;;-4.74;66.05
75166;BME280;63747;48.042;10.088;2023-02-28T06:20:02;95561.59;;;-4.72;65.92
75166;BME280;63747;48.042;10.088;2023-02-28T06:23:03;95566.63;;;-4.69;65.87
75166;BME280;63747;48.042;10.088;2023-02-28T06:26:04;95576.13;;;-4.70;65.97
75166;BME280;63747;48.042;10.088;2023-02-28T06:29:05;95573.75;;;-4.74;66.06
75166;BME280;63747;48.042;10.088;2023-02-28T06:32:06;95570.19;;;-4.72;65.99
75166;BME280;63747;48.042;10.088;2023-02-28T06:35:07;95576.13;;;-4.70;66.21
75166;BME280;63747;48.042;10.088;2023-02-28T06:38:08;95570.81;;;-4.66;66.27
75166;BME280;63747;48.042;10.088;2023-02-28T06:41:09;95574.84;;;-4.61;65.90
75166;BME280;63747;48.042;10.088;2023-02-28T06:44:15;95593.78;;;-4.60;66.10
75166;BME280;63747;48.042;10.088;2023-02-28T06:47:17;95590.53;;;-4.64;65.95
75166;BME280;63747;48.042;10.088;2023-02-28T06:50:17;95596.38;;;-4.60;66.19
75166;BME280;63747;48.042;10.088;2023-02-28T06:53:19;95589.41;;;-4.58;66.06
75166;BME280;63747;48.042;10.088;2023-02-28T06:56:20;95598.75;;;-4.56;66.03
75166;BME280;63747;48.042;10.088;2023-02-28T06:59:21;95594.34;;;-4.54;65.90
75166;BME280;63747;48.042;10.088;2023-02-28T07:02:21;95587.97;;;-4.47;65.93
75166;BME280;63747;48.042;10.088;2023-02-28T07:05:22;95588.59;;;-4.42;66.03
75166;BME280;63747;48.042;10.088;2023-02-28T07:08:24;95599.47;;;-4.35;66.03
75166;BME280;63747;48.042;10.088;2023-02-28T07:11:26;95595.00;;;-4.31;65.84
75166;BME280;63747;48.042;10.088;2023-02-28T07:14:27;95608.25;;;-4.37;66.29
75166;BME280;63747;48.042;10.088;2023-02-28T07:17:28;95600.91;;;-4.47;66.53
75166;BME280;63747;48.042;10.088;2023-02-28T07:20:29;95613.78;;;-4.45;66.37
75166;BME280;63747;48.042;10.088;2023-02-28T07:23:30;95604.63;;;-4.52;66.59
75166;BME280;63747;48.042;10.088;2023-02-28T07:26:31;95610.28;;;-4.44;66.44
75166;BME280;63747;48.042;10.088;2023-02-28T07:29:34;95613.34;;;-4.36;66.29
75166;BME280;63747;48.042;10.088;2023-02-28T07:32:34;95606.28;;;-4.32;65.92
75166;BME280;63747;48.042;10.088;2023-02-28T07:35:37;95614.44;;;-4.23;66.14
75166;BME280;63747;48.042;10.088;2023-02-28T07:38:38;95611.25;;;-4.10;66.02
75166;BME280;63747;48.042;10.088;2023-02-28T07:41:39;95616.03;;;-4.03;66.03
75166;BME280;63747;48.042;10.088;2023-02-28T07:44:43;95610.88;;;-4.03;65.88
75166;BME280;63747;48.042;10.088;2023-02-28T07:47:44;95622.81;;;-4.00;65.78
75166;BME280;63747;48.042;10.088;2023-02-28T07:50:44;95607.75;;;-4.09;65.86
75166;BME280;63747;48.042;10.088;2023-02-28T07:53:48;95614.28;;;-4.02;66.08
75166;BME280;63747;48.042;10.088;2023-02-28T07:56:48;95606.16;;;-3.95;65.98
75166;BME280;63747;48.042;10.088;2023-02-28T07:59:49;95609.34;;;-3.90;65.90
75166;BME280;63747;48.042;10.088;2023-02-28T08:02:50;95620.25;;;-3.83;65.93
75166;BME280;63747;48.042;10.088;2023-02-28T08:05:51;95611.34;;;-3.77;65.57
75166;BME280;63747;48.042;10.088;2023-02-28T08:08:53;95622.63;;;-3.78;65.50
75166;BME280;63747;48.042;10.088;2023-02-28T08:11:54;95629.16;;;-3.71;65.26
75166;BME280;63747;48.042;10.088;2023-02-28T08:14:54;95638.88;;;-3.94;65.72
75166;BME280;63747;48.042;10.088;2023-02-28T08:17:55;95635.63;;;-3.97;65.92
75166;BME280;63747;48.042;10.088;2023-02-28T08:20:56;95640.72;;;-3.96;65.61
75166;BME280;63747;48.042;10.088;2023-02-28T08:23:57;95625.88;;;-3.92;65.71
75166;BME280;63747;48.042;10.088;2023-02-28T08:26:58;95621.53;;;-3.74;65.76
75166;BME280;63747;48.042;10.088;2023-02-28T08:29:58;95623.06;;;-3.70;65.47
75166;BME280;63747;48.042;10.088;2023-02-28T08:32:59;95633.03;;;-3.63;65.26
75166;BME280;63747;48.042;10.088;2023-02-28T08:36:02;95631.50;;;-3.49;65.13
75166;BME280;63747;48.042;10.088;2023-02-28T08:39:03;95637.44;;;-3.47;65.05
75166;BME280;63747;48.042;10.088;2023-02-28T08:42:04;95638.53;;;-3.51;65.21
75166;BME280;63747;48.042;10.088;2023-02-28T08:45:05;95638.75;;;-3.56;64.97
75166;BME280;63747;48.042;10.088;2023-02-28T08:48:06;95656.06;;;-3.56;65.32
75166;BME280;63747;48.042;10.088;2023-02-28T08:51:09;95655.59;;;-3.47;65.08
75166;BME280;63747;48.042;10.088;2023-02-28T08:54:10;95664.59;;;-3.37;64.88
75166;BME280;63747;48.042;10.088;2023-02-28T08:57:16;95657.69;;;-3.38;64.76
75166;BME280;63747;48.042;10.088;2023-02-28T09:00:17;95654.13;;;-3.36;64.67
75166;BME280;63747;48.042;10.088;2023-02-28T09:03:17;95665.28;;;-3.18;64.67
75166;BME280;63747;48.042;10.088;2023-02-28T09:06:20;95672.94;;;-3.15;64.52
75166;BME280;63747;48.042;10.088;2023-02-28T09:09:21;95666.84;;;-2.98;64.55
75166;BME280;63747;48.042;10.088;2023-02-28T09:12:26;95662.13;;;-2.90;64.18
75166;BME280;63747;48.042;10.088;2023-02-28T09:15:27;95672.41;;;-2.88;64.42
75166;BME280;63747;48.042;10.088;2023-02-28T09:18:28;95672.84;;;-2.80;64.33
75166;BME280;63747;48.042;10.088;2023-02-28T09:21:29;95667.66;;;-2.80;64.09
75166;BME280;63747;48.042;10.088;2023-02-28T09:24:29;95666.66;;;-2.78;64.04
75166;BME280;63747;48.042;10.088;2023-02-28T09:27:31;95674.38;;;-2.76;64.07
75166;BME280;63747;48.042;10.088;2023-02-28T09:30:32;95668.09;;;-2.72;63.90
75166;BME280;63747;48.042;10.088;2023-02-28T09:33:32;95675.63;;;-2.67;63.78
75166;BME280;63747;48.042;10.088;2023-02-28T09:36:34;95664.75;;;-2.74;63.80
75166;BME280;63747;48.042;10.088;2023-02-28T09:39:37;95679.25;;;-2.70;63.69
75166;BME280;63747;48.042;10.088;2023-02-28T09:42:38;95677.22;;;-2.65;63.85
75166;BME280;63747;48.042;10.088;2023-02-28T09:45:41;95684.13;;;-2.48;63.66
75166;BME280;63747;48.042;10.088;2023-02-28T09:48:45;95677.75;;;-2.42;63.33
75166;BME280;63747;48.042;10.088;2023-02-28T09:51:52;95675.56;;;-2.34;63.11
75166;BME280;63747;48.042;10.088;2023-02-28T09:54:55;95680.09;;;-2.22;63.02
75166;BME280;63747;48.042;10.088;2023-02-28T09:57:56;95676.31;;;-2.16;62.99
75166;BME280;63747;48.042;10.088;2023-02-28T10:01:06;95681.44;;;-2.15;62.53
75166;BME280;63747;48.042;10.088;2023-02-28T10:10:40;95688.13;;;-2.27;62.36
75166;BME280;63747;48.042;10.088;2023-02-28T10:13:58;95696.53;;;-2.21;62.45
75166;BME280;63747;48.042;10.088;2023-02-28T10:17:05;95700.38;;;-2.13;62.47
75166;BME280;63747;48.042;10.088;2023-02-28T10:20:19;95692.81;;;-2.17;62.42
75166;BME280;63747;48.042;10.088;2023-02-28T10:23:25;95693.31;;;-2.11;62.28
75166;BME280;63747;48.042;10.088;2023-02-28T10:26:29;95688.38;;;-2.00;61.97
75166;BME280;63747;48.042;10.088;2023-02-28T10:29:32;95690.13;;;-1.84;62.18
75166;BME280;63747;48.042;10.088;2023-02-28T10:32:35;95693.13;;;-1.76;62.00
75166;BME280;63747;48.042;10.088;2023-02-28T10:35:36;95703.25;;;-1.72;61.94
75166;BME280;63747;48.042;10.088;2023-02-28T10:38:39;95703.78;;;-1.81;61.91
75166;BME280;63747;48.042;10.088;2023-02-28T10:41:42;95701.28;;;-1.82;62.05
75166;BME280;63747;48.042;10.088;2023-02-28T10:44:43;95702.78;;;-1.94;61.90
75166;BME280;63747;48.042;10.088;2023-02-28T10:50:59;95714.09;;;-1.79;62.08
75166;BME280;63747;48.042;10.088;2023-02-28T10:54:00;95713.00;;;-1.75;62.01
75166;BME280;63747;48.042;10.088;2023-02-28T10:57:13;95713.78;;;-1.59;61.82
75166;BME280;63747;48.042;10.088;2023-02-28T11:00:21;95712.28;;;-1.63;61.78
75166;BME280;63747;48.042;10.088;2023-02-28T11:03:32;95717.97;;;-1.56;61.91
75166;BME280;63747;48.042;10.088;2023-02-28T11:06:34;95714.88;;;-1.63;61.65
75166;BME280;63747;48.042;10.088;2023-02-28T11:09:38;95709.69;;;-1.63;61.94
75166;BME280;63747;48.042;10.088;2023-02-28T11:12:40;95709.00;;;-1.51;61.67
75166;BME280;63747;48.042;10.088;2023-02-28T11:15:51;95703.97;;;-1.54;61.51
75166;BME280;63747;48.042;10.088;2023-02-28T11:18:54;95711.69;;;-1.52;61.67
75166;BME280;63747;48.042;10.088;2023-02-28T11:21:57;95708.34;;;-1.54;60.75
75166;BME280;63747;48.042;10.088;2023-02-28T11:25:03;95708.94;;;-1.65;61.24
75166;BME280;63747;48.042;10.088;2023-02-28T11:28:25;95708.59;;;-1.59;61.30
75166;BME280;63747;48.042;10.088;2023-02-28T11:31:26;95701.44;;;-1.55;61.56
75166;BME280;63747;48.042;10.088;2023-02-28T11:34:30;95701.78;;;-1.46;61.72
75166;BME280;63747;48.042;10.088;2023-02-28T11:37:31;95702.84;;;-1.34;61.71
75166;BME280;63747;48.042;10.088;2023-02-28T11:40:45;95699.41;;;-1.34;61.32
75166;BME280;63747;48.042;10.088;2023-02-28T11:47:28;95712.22;;;-1.31;61.17
75166;BME280;63747;48.042;10.088;2023-02-28T11:54:04;95716.50;;;-1.30;61.12
75166;BME280;63747;48.042;10.088;2023-02-28T11:57:23;95721.25;;;-1.23;61.27
75166;BME280;63747;48.042;10.088;2023-02-28T12:04:21;95714.25;;;-1.36;60.97
75166;BME280;63747;48.042;10.088;2023-02-28T12:17:55;95696.13;;;-0.94;60.83
75166;BME280;63747;48.042;10.088;2023-02-28T12:21:08;95701.25;;;-0.78;60.79
75166;BME280;63747;48.042;10.088;2023-02-28T12:27:27;95701.72;;;-0.71;60.48
75166;BME280;63747;48.042;10.088;2023-02-28T12:30:32;95684.53;;;-0.74;60.05
75166;BME280;63747;48.042;10.088;2023-02-28T12:33:39;95700.31;;;-0.77;59.54
75166;BME280;63747;48.042;10.088;2023-02-28T12:36:43;95697.44;;;-0.87;60.04
75166;BME280;63747;48.042;10.088;2023-02-28T12:39:47;95696.31;;;-0.68;59.96
75166;BME280;63747;48.042;10.088;2023-02-28T12:42:52;95693.69;;;-0.54;59.65
75166;BME280;63747;48.042;10.088;2023-02-28T12:45:57;95689.91;;;-0.63;59.21
75166;BME280;63747;48.042;10.088;2023-02-28T12:49:06;95689.28;;;-0.80;59.85
75166;BME280;63747;48.042;10.088;2023-02-28T12:52:11;95690.63;;;-0.75;59.92
75166;BME280;63747;48.042;10.088;2023-02-28T12:55:21;95694.81;;;-0.44;59.61
75166;BME280;63747;48.042;10.088;2023-02-28T12:58:40;95676.84;;;-0.34;58.90
75166;BME280;63747;48.042;10.088;2023-02-28T13:02:06;95679.84;;;-0.40;58.97
75166;BME280;63747;48.042;10.088;2023-02-28T13:05:29;95676.81;;;-0.20;59.05
75166;BME280;63747;48.042;10.088;2023-02-28T13:08:52;95670.84;;;-0.08;59.43
75166;BME280;63747;48.042;10.088;2023-02-28T13:11:59;95667.34;;;0.06;59.16
75166;BME280;63747;48.042;10.088;2023-02-28T13:18:45;95682.59;;;0.12;59.05
75166;BME280;63747;48.042;10.088;2023-02-28T13:21:46;95676.84;;;0.07;59.01
75166;BME280;63747;48.042;10.088;2023-02-28T13:24:55;95663.28;;;0.29;58.37
75166;BME280;63747;48.042;10.088;2023-02-28T13:27:56;95668.72;;;0.39;58.55
75166;BME280;63747;48.042;10.088;2023-02-28T13:31:05;95658.13;;;0.67;57.97
75166;BME280;63747;48.042;10.088;2023-02-28T13:34:14;95657.75;;;0.86;57.59
75166;BME280;63747;48.042;10.088;2023-02-28T13:37:42;95655.47;;;1.20;57.44
75166;BME280;63747;48.042;10.088;2023-02-28T13:40:43;95654.81;;;1.42;57.27
75166;BME280;63747;48.042;10.088;2023-02-28T13:44:07;95653.25;;;1.88;56.12
75166;BME280;63747;48.042;10.088;2023-02-28T13:47:20;95663.56;;;2.03;55.33
75166;BME280;63747;48.042;10.088;2023-02-28T13:53:39;95666.13;;;2.15;55.33
75166;BME280;63747;48.042;10.088;2023-02-28T13:56:57;95671.03;;;2.20;55.16
75166;BME280;63747;48.042;10.088;2023-02-28T14:00:37;95672.97;;;1.56;55.40
75166;BME280;63747;48.042;10.088;2023-02-28T14:04:04;95672.63;;;1.73;55.80
75166;BME280;63747;48.042;10.088;2023-02-28T14:07:17;95670.03;;;1.73;55.83
75166;BME280;63747;48.042;10.088;2023-02-28T14:10:45;95667.13;;;1.65;56.11
75166;BME280;63747;48.042;10.088;2023-02-28T14:13:46;95674.22;;;1.63;56.69
75166;BME280;63747;48.042;10.088;2023-02-28T14:16:48;95672.56;;;1.49;56.55
75166;BME280;63747;48.042;10.088;2023-02-28T14:19:50;95669.25;;;1.34;55.82
75166;BME280;63747;48.042;10.088;2023-02-28T14:22:54;95667.88;;;1.42;56.54
75166;BME280;63747;48.042;10.088;2023-02-28T14:29:42;95667.75;;;1.56;56.52
75166;BME280;63747;48.042;10.088;2023-02-28T14:36:20;95668.78;;;1.66;56.32
75166;BME280;63747;48.042;10.088;2023-02-28T14:39:25;95675.38;;;1.72;56.20
75166;BME280;63747;48.042;10.088;2023-02-28T14:42:27;95677.38;;;2.05;56.23
75166;BME280;63747;48.042;10.088;2023-02-28T14:45:31;95671.00;;;1.96;55.71
75166;BME280;63747;48.042;10.088;2023-02-28T14:48:32;95672.28;;;1.91;55.96
75166;BME280;63747;48.042;10.088;2023-02-28T14:51:35;95675.81;;;1.89;56.09
75166;BME280;63747;48.042;10.088;2023-02-28T14:54:37;95682.94;;;1.87;56.34
75166;BME280;63747;48.042;10.088;2023-02-28T14:57:51;95677.28;;;1.94;55.74
75166;BME280;63747;48.042;10.088;2023-02-28T15:00:54;95682.00;;;1.88;56.23
75166;BME280;63747;48.042;10.088;2023-02-28T15:04:00;95678.78;;;1.85;56.37
75166;BME280;63747;48.042;10.088;2023-02-28T15:07:15;95687.91;;;1.79;56.16
75166;BME280;63747;48.042;10.088;2023-02-28T15:10:17;95689.47;;;1.69;56.60
75166;BME280;63747;48.042;10.088;2023-02-28T15:13:19;95683.31;;;1.70;56.38
75166;BME280;63747;48.042;10.088;2023-02-28T15:19:30;95680.91;;;1.67;56.54
75166;BME280;63747;48.042;10.088;2023-02-28T15:22:35;95681.34;;;1.61;56.19
75166;BME280;63747;48.042;10.088;2023-02-28T15:25:37;95680.72;;;1.70;56.71
75166;BME280;63747;48.042;10.088;2023-02-28T15:28:40;95678.59;;;1.75;56.48
75166;BME280;63747;48.042;10.088;2023-02-28T15:31:56;95677.03;;;1.73;56.66
75166;BME280;63747;48.042;10.088;2023-02-28T15:34:59;95669.09;;;1.61;56.56
75166;BME280;63747;48.042;10.088;2023-02-28T15:38:27;95677.78;;;1.49;57.00
75166;BME280;63747;48.042;10.088;2023-02-28T15:41:36;95680.72;;;1.57;57.32
75166;BME280;63747;48.042;10.088;2023-02-28T15:44:40;95683.66;;;1.53;57.00
75166;BME280;63747;48.042;10.088;2023-02-28T15:47:45;95693.28;;;1.40;56.83
75166;BME280;63747;48.042;10.088;2023-02-28T15:50:50;95688.88;;;1.15;57.24
75166;BME280;63747;48.042;10.088;2023-02-28T15:53:56;95690.88;;;1.11;57.21
75166;BME280;63747;48.042;10.088;2023-02-28T15:57:03;95685.66;;;1.11;57.39
75166;BME280;63747;48.042;10.088;2023-02-28T16:00:11;95690.03;;;1.11;57.70
75166;BME280;63747;48.042;10.088;2023-02-28T16:03:26;95693.91;;;1.05;57.79
75166;BME280;63747;48.042;10.088;2023-02-28T16:06:37;95685.34;;;1.03;57.92
75166;BME280;63747;48.042;10.088;2023-02-28T16:09:39;95698.28;;;0.92;58.09
75166;BME280;63747;48.042;10.088;2023-02-28T16:12:42;95700.66;;;0.95;58.19
75166;BME280;63747;48.042;10.088;2023-02-28T16:15:43;95687.09;;;0.90;58.31
75166;BME280;63747;48.042;10.088;2023-02-28T16:18:45;95693.69;;;0.83;58.05
75166;BME280;63747;48.042;10.088;2023-02-28T16:21:46;95695.31;;;0.71;58.50
75166;BME280;63747;48.042;10.088;2023-02-28T16:24:46;95698.75;;;0.71;58.48
75166;BME280;63747;48.042;10.088;2023-02-28T16:27:49;95698.84;;;0.57;58.69
75166;BME280;63747;48.042;10.088;2023-02-28T16:30:51;95700.78;;;0.54;58.76
75166;BME280;63747;48.042;10.088;2023-02-28T16:33:53;95696.91;;;0.46;58.75
75166;BME280;63747;48.042;10.088;2023-02-28T16:36:53;95694.41;;;0.45;58.77
75166;BME280;63747;48.042;10.088;2023-02-28T16:39:54;95694.63;;;0.42;58.81
75166;BME280;63747;48.042;10.088;2023-02-28T16:42:59;95699.28;;;0.37;58.96
75166;BME280;63747;48.042;10.088;2023-02-28T16:46:00;95696.41;;;0.27;58.95
75166;BME280;63747;48.042;10.088;2023-02-28T16:49:03;95693.47;;;0.19;59.31
75166;BME280;63747;48.042;10.088;2023-02-28T16:52:04;95702.25;;;0.18;59.26
75166;BME280;63747;48.042;10.088;2023-02-28T16:55:06;95704.78;;;0.05;59.43
75166;BME280;63747;48.042;10.088;2023-02-28T16:58:13;95710.72;;;0.07;59.42
75166;BME280;63747;48.042;10.088;2023-02-28T17:01:15;95715.69;;;-0.03;59.82
75166;BME280;63747;48.042;10.088;2023-02-28T17:04:17;95716.75;;;-0.05;59.94
75166;BME280;63747;48.042;10.088;2023-02-28T17:07:18;95712.34;;;-0.05;59.84
75166;BME280;63747;48.042;10.088;2023-02-28T17:10:21;95713.38;;;-0.07;59.73
75166;BME280;63747;48.042;10.088;2023-02-28T17:13:22;95716.06;;;-0.09;59.71
75166;BME280;63747;48.042;10.088;2023-02-28T17:16:33;95718.59;;;-0.21;60.01
75166;BME280;63747;48.042;10.088;2023-02-28T17:19:35;95724.88;;;-0.38;60.30
75166;BME280;63747;48.042;10.088;2023-02-28T17:22:38;95729.97;;;-0.37;60.34
75166;BME280;63747;48.042;10.088;2023-02-28T17:25:38;95740.59;;;-0.40;60.30